< Typhoon 198426 1984 Season Typhoon 198501 >
Typhoon 198427 (DOYLE)
General InformationTrack Information on Google MapsDetailed Wind InformationList of All Images || Disaster Info.ResourceGoogle EarthGE AnimationAtom FeedGeoJSON
Detalied Best Track (Time Zone = UTC)
Year Month Day Hour Lat. Long. Pressure (hPa) Wind (kt) Class Image Chart
1984 12 3 12 5.0 141.5 1004 0 2 Image Chart
1984 12 3 18 5.0 140.5 1004 0 2 Image Chart
1984 12 4 00 5.5 139.5 1004 0 2 Image Chart
1984 12 4 06 6.0 138.5 1000 0 2 Image Chart
1984 12 4 12 6.8 138.1 1000 0 2 Image Chart
1984 12 4 18 7.6 137.8 1000 0 2 Image Chart
1984 12 5 00 8.5 137.4 998 0 2 Image Chart
1984 12 5 06 9.2 136.9 992 40 3 Image Chart
1984 12 5 12 9.7 136.3 990 40 3 Image Chart
1984 12 5 18 10.4 135.5 985 50 4 Image Chart
1984 12 6 00 11.2 135.0 985 50 4 Image Chart
1984 12 6 06 11.6 134.3 985 55 4 Image Chart
1984 12 6 12 12.1 133.8 985 50 4 Image Chart
1984 12 6 18 12.7 133.6 980 50 4 Image Chart
1984 12 7 00 13.5 133.2 975 80 5 Image Chart
1984 12 7 06 14.5 132.8 960 85 5 Image Chart
1984 12 7 12 15.1 132.4 950 85 5 Image Chart
1984 12 7 18 15.5 132.1 940 85 5 Image Chart
1984 12 8 00 15.8 131.8 940 90 5 Image Chart
1984 12 8 06 16.1 131.5 940 90 5 Image Chart
1984 12 8 12 16.6 131.0 940 100 5 Image Chart
1984 12 8 18 16.9 130.7 945 90 5 Image Chart
1984 12 9 00 17.4 130.4 955 90 5 Image Chart
1984 12 9 06 17.8 130.1 965 90 5 Image Chart
1984 12 9 12 18.6 129.7 985 70 5 Image Chart
1984 12 9 18 19.5 129.8 985 50 4 Image Chart
1984 12 10 00 20.2 130.0 990 45 3 Image Chart
1984 12 10 06 21.4 130.9 992 45 3 Image Chart
1984 12 10 12 22.2 131.6 996 40 3 Image Chart
1984 12 10 18 23.0 132.4 998 35 3 Image Chart
1984 12 11 00 24.0 133.3 1000 0 2 Image Chart
1984 12 11 06 25.2 135.0 1002 0 2 Image Chart
1984 12 11 12 26.3 137.2 1004 0 2 Image Chart
1984 12 11 18 27.5 140.0 1004 0 2 Image Chart
1984 12 12 00 28.5 143.0 1004 0 2 Image Chart
Japan Meteorological Agency Best Track Data | Correction Date : 1992-10-21
< Typhoon 198426 1984 Season Typhoon 198501 >

Help